Etusivu
METAR-TAF:

METAR-TAF

Lentoasemat :

Stuttgart Municipal Airport

Stuttgart, Arkansas, Yhdysvallat

Leveyspiiri: 34-36N, Pituuspiiri: 091-34W, korkeus merenpinnasta: 68 m

Tämänhetkinen sää

Tämä raportti tehtiin 32 minuuttia sitten, kello 10.15 UTC
Tuuli 15 kn pohjoisesta
Lämpötila -4°C
Kosteus 74%
Ilmanpaine 1034 hPa
Näkyvyys: 16.1 km
Hajonneita pilviä 2400 ft:n korkeudessa

METAR: KSGT 121015Z AUTO 36015KT 10SM BKN024 M04/M08 A3052 RMK AO2 PK WND 01026/1000 FZRANO

Aika: 04:47 (10:47 UTC)


TAF: puuttuu

Säähavainnot ja -ennusteet yli 4000 lentoasemalta (METAR- ja TAF-raportit).

Käytössä olevat sääasemat on merkitty karttaan keltaisilla ja punaisilla pisteillä.

Aseta hiiri pisteen päälle nähdäksesi sääaseman nimen.

Klikkaa sitten nähdäksesi säähavainnot ja -ennusteet.

Kartan vaihtaminen: klikkaa mustalla rastilla varustettuja vihreitä pisteitä, niin voit zoomata sisään; viivalla varustettua vihreää pistettä, niin voit zoomata ulos tai vihreitä nuolia, niin pääset viereisille kartoille.


METAR-TAF: